Flight Track Log - Related Links

Times and Time Zones

All times are in EDT time to prevent confusion due to time zone crossing. See the SWA2624 flight status page for this flight to view local times or setup timezone preferences in your user account.

Time Position Orientation Groundspeed Altitude Reporting Facility
EDT Latitude Longitude Course Direction KTS MPH feet Rate Location/Type
Sun 06:50:51 PM 39.1500 -76.6667 211° Southwest 166 191 2,000  Level Potomac TRACON
Sun 06:51:57 PM 39.1667 -76.7333 288° West 257 296 5,300 3,337 Climbing Potomac TRACON
Sun 06:53:49 PM 39.2150 -76.8856 292° West 257 296 11,900 3,225 Climbing Washington Center
Sun 06:54:50 PM 39.2117 -76.9872 268° West 290 334 14,600 2,182 Climbing Washington Center
Sun 06:55:50 PM 39.2081 -77.1239 268° West 361 415 16,300 2,168 Climbing Washington Center
Sun 06:56:00 PM 39.0622 -77.2609 211° Southwest  Level FlightAware Approximate
Sun 06:56:49 PM 39.1400 -77.2161 226° Southwest 381 438 18,900  Level Washington Center
Sun 06:57:49 PM 39.0600 -77.2864 214° Southwest 416 479 22,000 2,331 Climbing Washington Center
Sun 06:58:50 PM 38.9939 -77.3892 230° Southwest 378 435 23,600 1,815 Climbing Washington Center
Sun 06:59:48 PM 38.9708 -77.5247 258° West 373 429 25,600 2,017 Climbing Washington Center
Sun 07:00:49 PM 38.9456 -77.6708 258° West 402 463 27,600 2,231 Climbing Washington Center
Sun 07:01:49 PM 38.9244 -77.7928 257° West 414 476 30,100 2,479 Climbing Washington Center
Sun 07:02:50 PM 38.8986 -77.9469 258° West 403 464 32,600 1,918 Climbing Washington Center
Sun 07:03:51 PM 38.8772 -78.0769 258° West 396 456 34,000 712 Climbing Washington Center
Sun 07:04:48 PM 38.8558 -78.2042 258° West 382 440 34,000 308 Level Washington Center
Sun 07:05:48 PM 38.8528 -78.3372 268° West 375 432 34,600 1,230 Climbing Washington Center
Sun 07:06:50 PM 38.8500 -78.4625 268° West 363 418 36,500 1,672 Climbing Washington Center
Sun 07:07:50 PM 38.8511 -78.5906 271° West 363 418 38,000 763 Climbing Washington Center
Sun 07:08:48 PM 38.8478 -78.7156 268° West 363 418 38,000  Level Washington Center
Sun 07:09:48 PM 38.8486 -78.8408 271° West 363 418 38,000  Level Washington Center
Sun 07:10:48 PM 38.8453 -78.9686 268° West 363 418 38,000  Level Washington Center
Sun 07:11:50 PM 38.8436 -79.0967 269° West 363 418 38,000  Level Washington Center
Sun 07:12:50 PM 38.8419 -79.2192 269° West 363 418 38,000  Level Washington Center
Sun 07:13:48 PM 38.8403 -79.3417 269° West 363 418 38,000  Level Washington Center
Sun 07:14:48 PM 38.8383 -79.4669 269° West 358 412 38,000  Level Washington Center
Sun 07:15:49 PM 38.8344 -79.5892 268° West 371 427 38,000  Level Washington Center
Sun 07:16:51 PM 38.8322 -79.7144 269° West 376 433 38,000  Level Washington Center
Sun 07:17:48 PM 38.8300 -79.8422 269° West 366 421 38,000  Level Washington Center
Sun 07:18:49 PM 38.8250 -79.9778 267° West 360 414 38,000  Level Washington Center
Sun 07:19:49 PM 38.8225 -80.1003 269° West 355 409 38,000  Level Washington Center
Sun 07:20:22 PM 38.8181 -80.1489 263° West 351 404 38,000  Level Indianapolis Center
Sun 07:21:24 PM 38.8144 -80.2747 268° West 352 405 38,000  Level Indianapolis Center
Sun 07:22:26 PM 38.8103 -80.4253 268° West 354 407 38,000  Level Indianapolis Center
Sun 07:23:28 PM 38.8075 -80.5497 268° West 349 402 38,000  Level Indianapolis Center
Sun 07:24:30 PM 38.8047 -80.6758 268° West 355 409 38,000  Level Indianapolis Center
Sun 07:25:32 PM 38.7997 -80.8036 267° West 358 412 38,000  Level Indianapolis Center
Sun 07:26:34 PM 38.7953 -80.9317 267° West 359 413 38,000  Level Indianapolis Center
Sun 07:27:36 PM 38.7917 -81.0600 268° West 360 414 38,000  Level Indianapolis Center
Sun 07:28:37 PM 38.7872 -81.1875 267° West 359 413 38,000  Level Indianapolis Center
Sun 07:29:39 PM 38.7822 -81.3394 268° West 356 410 38,000 145 Level Indianapolis Center
Sun 07:30:41 PM 38.7772 -81.4728 267° West 356 410 38,300 532 Climbing Indianapolis Center
Sun 07:31:43 PM 38.7725 -81.5997 267° West 357 411 39,100 629 Climbing Indianapolis Center
Sun 07:32:45 PM 38.7681 -81.7136 267° West 361 415 39,600 435 Climbing Indianapolis Center
Sun 07:33:47 PM 38.7614 -81.8733 267° West 375 432 40,000 194 Climbing Indianapolis Center
Sun 07:34:49 PM 38.7550 -82.0083 267° West 381 438 40,000  Level Indianapolis Center
Sun 07:35:51 PM 38.7497 -82.1483 267° West 392 451 40,000  Level Indianapolis Center
Sun 07:36:53 PM 38.7447 -82.2881 267° West 393 452 40,000  Level Indianapolis Center
Sun 07:37:55 PM 38.7394 -82.4292 267° West 396 456 40,000  Level Indianapolis Center
Sun 07:38:57 PM 38.7336 -82.5711 267° West 398 458 40,000  Level Indianapolis Center
Sun 07:39:58 PM 38.7272 -82.7108 267° West 395 455 40,000  Level Indianapolis Center
Sun 07:41:00 PM 38.7206 -82.8778 267° West 392 451 40,000  Level Indianapolis Center
Sun 07:42:02 PM 38.7142 -83.0156 267° West 388 447 40,000  Level Indianapolis Center
Sun 07:43:04 PM 38.7081 -83.1528 267° West 388 447 40,000  Level Indianapolis Center
Sun 07:44:06 PM 38.7006 -83.3067 266° West 389 448 40,000  Level Indianapolis Center
Sun 07:45:08 PM 38.6944 -83.4453 267° West 388 447 40,000  Level Indianapolis Center
Sun 07:46:09 PM 38.6872 -83.5864 266° West 393 452 40,000  Level Indianapolis Center
Sun 07:47:11 PM 38.6806 -83.7281 267° West 394 453 40,000  Level Indianapolis Center
Sun 07:48:13 PM 38.6725 -83.8706 266° West 398 458 40,000  Level Indianapolis Center
Sun 07:49:15 PM 38.6650 -84.0139 266° West 399 459 40,000  Level Indianapolis Center
Sun 07:50:17 PM 38.6569 -84.1575 266° West 400 460 40,000  Level Indianapolis Center
Sun 07:51:18 PM 38.6506 -84.3014 267° West 403 464 40,000  Level Indianapolis Center
Sun 07:52:20 PM 38.6575 -84.4444 274° West 402 463 40,000  Level Indianapolis Center
Sun 07:53:22 PM 38.6661 -84.5997 274° West 400 460 40,000  Level Indianapolis Center
Sun 07:54:24 PM 38.6744 -84.7428 274° West 401 461 40,000  Level Indianapolis Center
Sun 07:55:25 PM 38.6817 -84.8836 274° West 397 457 40,000  Level Indianapolis Center
Sun 07:56:27 PM 38.6911 -85.0233 275° West 394 453 40,000  Level Indianapolis Center
Sun 07:57:29 PM 38.6992 -85.1650 274° West 396 456 40,000  Level Indianapolis Center
Sun 07:58:31 PM 38.7072 -85.3317 274° West 396 456 40,000  Level Indianapolis Center
Sun 07:59:32 PM 38.7144 -85.4739 274° West 397 457 40,000  Level Indianapolis Center
Sun 08:00:34 PM 38.7219 -85.6150 274° West 396 456 40,000  Level Indianapolis Center
Sun 08:01:36 PM 38.7292 -85.7589 274° West 399 459 40,000  Level Indianapolis Center
Sun 08:02:37 PM 38.7356 -85.9042 273° West 397 457 40,000  Level Indianapolis Center
Sun 08:03:39 PM 38.7419 -86.0469 273° West 399 459 40,000  Level Indianapolis Center
Sun 08:04:41 PM 38.7483 -86.1886 273° West 399 459 40,000  Level Indianapolis Center
Sun 08:05:42 PM 38.7558 -86.3322 274° West 402 463 40,000  Level Indianapolis Center
Sun 08:06:44 PM 38.7603 -86.4744 272° West 400 460 40,000  Level Indianapolis Center
Sun 08:07:46 PM 38.7667 -86.6153 273° West 398 458 40,000  Level Indianapolis Center
Sun 08:08:47 PM 38.7733 -86.7856 273° West 400 460 40,000  Level Indianapolis Center
Sun 08:09:49 PM 38.7789 -86.9269 273° West 399 459 40,000  Level Indianapolis Center
Sun 08:10:51 PM 38.7844 -87.0689 273° West 400 460 40,000  Level Indianapolis Center
Sun 08:11:52 PM 38.7892 -87.2097 273° West 398 458 40,000  Level Indianapolis Center
Sun 08:12:54 PM 38.7942 -87.3531 273° West 403 464 40,000  Level Indianapolis Center
Sun 08:13:56 PM 38.7992 -87.4986 273° West 408 470 40,000  Level Indianapolis Center
Sun 08:14:57 PM 38.8039 -87.6408 272° West 402 463 40,000  Level Indianapolis Center
Sun 08:15:59 PM 38.8094 -87.8122 272° West 401 461 40,000  Level Indianapolis Center
Sun 08:17:01 PM 38.8131 -87.9547 272° West 400 460 40,000  Level Indianapolis Center
Sun 08:17:29 PM 38.8139 -88.0142 271° West 401 461 40,000  Level Kansas City Center
Sun 08:18:31 PM 38.8181 -88.1567 272° West 400 460 40,000  Level Kansas City Center
Sun 08:19:33 PM 38.8222 -88.2992 272° West 399 459 40,000  Level Kansas City Center
Sun 08:20:35 PM 38.8253 -88.4408 272° West 397 457 40,000  Level Kansas City Center
Sun 08:21:37 PM 38.8300 -88.6108 272° West 397 457 40,000  Level Kansas City Center
Sun 08:22:39 PM 38.8314 -88.7269 271° West 393 452 40,000  Level Kansas City Center
Sun 08:23:41 PM 38.8356 -88.8953 272° West 395 455 40,000  Level Kansas City Center
Sun 08:24:43 PM 38.8403 -89.0414 272° West 405 466 40,000  Level Kansas City Center
Sun 08:25:45 PM 38.8433 -89.1964 271° West 406 467 40,000  Level Kansas City Center
Sun 08:26:47 PM 38.8458 -89.3417 271° West 409 471 40,000  Level Kansas City Center
Sun 08:27:49 PM 38.8483 -89.4994 271° West 413 475 40,000  Level Kansas City Center
Sun 08:28:51 PM 38.8511 -89.6469 271° West 416 479 40,000  Level Kansas City Center
Sun 08:29:53 PM 38.8531 -89.8008 271° West 417 480 40,000  Level Kansas City Center
Sun 08:30:55 PM 38.8556 -89.9506 271° West 421 484 40,000  Level Kansas City Center
Sun 08:31:57 PM 38.8589 -90.1083 272° West 421 484 40,000  Level Kansas City Center
Sun 08:32:59 PM 38.8606 -90.2606 271° West 425 489 40,000  Level Kansas City Center
Sun 08:34:01 PM 38.8622 -90.4139 271° West 428 493 40,000  Level Kansas City Center
Sun 08:35:03 PM 38.8522 -90.5647 265° West 428 493 40,000  Level Kansas City Center
Sun 08:36:05 PM 38.8292 -90.7228 259° West 418 481 40,000 -339 Level Kansas City Center
Sun 08:37:07 PM 38.8111 -90.8722 261° West 423 487 39,300 -829 Descending Kansas City Center
Sun 08:38:08 PM 38.7933 -91.0194 261° West 422 486 38,300 -634 Descending Kansas City Center
Sun 08:39:10 PM 38.7675 -91.2050 260° West 439 505 38,000 -145 Descending Kansas City Center
Sun 08:40:12 PM 38.7478 -91.3553 260° West 433 498 38,000  Level Kansas City Center
Sun 08:41:14 PM 38.7272 -91.5042 260° West 427 491 38,000  Level Kansas City Center
Sun 08:42:16 PM 38.7067 -91.6500 260° West 429 494 38,000  Level Kansas City Center
Sun 08:43:18 PM 38.6864 -91.7989 260° West 426 490 38,000  Level Kansas City Center
Sun 08:44:20 PM 38.6603 -91.9769 259° West 425 489 38,000  Level Kansas City Center
Sun 08:45:22 PM 38.6389 -92.1253 260° West 425 489 38,000  Level Kansas City Center
Sun 08:46:23 PM 38.6178 -92.2733 260° West 425 489 38,000  Level Kansas City Center
Sun 08:47:25 PM 38.5956 -92.4206 259° West 424 488 38,000  Level Kansas City Center
Sun 08:48:27 PM 38.5736 -92.5647 259° West 418 481 38,000  Level Kansas City Center
Sun 08:49:29 PM 38.5511 -92.7122 259° West 421 484 38,000  Level Kansas City Center
Sun 08:50:31 PM 38.5244 -92.8911 259° West 427 491 38,000  Level Kansas City Center
Sun 08:51:32 PM 38.5022 -93.0397 259° West 427 491 38,000  Level Kansas City Center
Sun 08:52:34 PM 38.4800 -93.1878 259° West 426 490 38,000  Level Kansas City Center
Sun 08:53:36 PM 38.4572 -93.3358 259° West 426 490 38,000  Level Kansas City Center
Sun 08:54:37 PM 38.4342 -93.4842 259° West 426 490 38,000  Level Kansas City Center
Sun 08:55:39 PM 38.4111 -93.6328 259° West 426 490 38,000  Level Kansas City Center
Sun 08:56:41 PM 38.3875 -93.7808 259° West 428 493 38,000  Level Kansas City Center
Sun 08:57:43 PM 38.3583 -93.9594 258° West 429 494 38,000  Level Kansas City Center
Sun 08:58:44 PM 38.3364 -94.0989 259° West 426 490 38,000  Level Kansas City Center
Sun 08:59:46 PM 38.3142 -94.2386 259° West 423 487 38,000  Level Kansas City Center
Sun 09:00:48 PM 38.2872 -94.4044 258° West 424 488 38,000  Level Kansas City Center
Sun 09:01:49 PM 38.2622 -94.5467 257° West 427 491 38,000  Level Kansas City Center
Sun 09:02:51 PM 38.2378 -94.7128 259° West 427 491 38,000  Level Kansas City Center
Sun 09:03:52 PM 38.2153 -94.8553 259° West 427 491 38,000  Level Kansas City Center
Sun 09:04:54 PM 38.1919 -94.9956 258° West 426 490 38,000  Level Kansas City Center
Sun 09:05:55 PM 38.1653 -95.1644 259° West 433 498 38,000  Level Kansas City Center
Sun 09:06:57 PM 38.1406 -95.3042 257° West 427 491 38,000  Level Kansas City Center
Sun 09:07:59 PM 38.1133 -95.4672 258° West 423 487 38,000  Level Kansas City Center
Sun 09:09:00 PM 38.0892 -95.6094 258° West 427 491 38,000  Level Kansas City Center
Sun 09:10:02 PM 38.0639 -95.7503 257° West 426 490 38,000  Level Kansas City Center
Sun 09:11:03 PM 38.0350 -95.9125 257° West 423 487 38,000  Level Kansas City Center
Sun 09:12:05 PM 38.0131 -96.0536 259° West 425 489 38,000  Level Kansas City Center
Sun 09:13:07 PM 37.9869 -96.2083 258° West 427 491 38,000  Level Kansas City Center
Sun 09:14:08 PM 37.9628 -96.3550 258° West 425 489 38,000  Level Kansas City Center
Sun 09:15:10 PM 37.9375 -96.4997 258° West 423 487 38,000  Level Kansas City Center
Sun 09:16:11 PM 37.9142 -96.6450 259° West 421 484 38,000  Level Kansas City Center
Sun 09:17:13 PM 37.8892 -96.7903 258° West 422 486 38,000  Level Kansas City Center
Sun 09:18:14 PM 37.8636 -96.9342 257° West 420 483 38,000  Level Kansas City Center
Sun 09:19:16 PM 37.8372 -97.0797 257° West 424 488 38,000  Level Kansas City Center
Sun 09:20:17 PM 37.8058 -97.2550 257° West 426 490 38,000  Level Kansas City Center
Sun 09:21:19 PM 37.7783 -97.4003 257° West 424 488 38,000  Level Kansas City Center
Sun 09:22:20 PM 37.7522 -97.5506 258° West 428 493 38,000  Level Kansas City Center
Sun 09:23:21 PM 37.7239 -97.6931 256° West 426 490 38,000  Level Kansas City Center
Sun 09:24:23 PM 37.6872 -97.8364 252° West 428 493 38,000  Level Kansas City Center
Sun 09:25:24 PM 37.6389 -97.9733 246° West 425 489 38,000  Level Kansas City Center
Sun 09:26:26 PM 37.5917 -98.1150 247° West 423 487 38,000  Level Kansas City Center
Sun 09:27:27 PM 37.5453 -98.2539 247° West 426 490 38,000  Level Kansas City Center
Sun 09:28:29 PM 37.5008 -98.3917 248° West 424 488 38,000  Level Kansas City Center
Sun 09:29:30 PM 37.4564 -98.5314 248° West 427 491 38,000  Level Kansas City Center
Sun 09:30:31 PM 37.4114 -98.6719 248° West 430 495 38,000  Level Kansas City Center
Sun 09:31:33 PM 37.3664 -98.8125 248° West 432 497 38,000  Level Kansas City Center
Sun 09:32:34 PM 37.3139 -98.9814 249° West 432 497 38,000  Level Kansas City Center
Sun 09:34:28 PM 37.2378 -99.2250 249° West 431 496 38,000  Level Albuquerque Center
Sun 09:35:30 PM 37.1978 -99.3675 251° West 433 498 38,000  Level Albuquerque Center
Sun 09:36:31 PM 37.1658 -99.5225 256° West 431 496 38,000  Level Albuquerque Center
Sun 09:37:32 PM 37.1314 -99.6858 255° West 433 498 38,000  Level Albuquerque Center
Sun 09:38:42 PM 37.0942 -99.8489 254° West 433 498 38,000  Level Kansas City Center
Sun 09:39:44 PM 37.0597 -100.0092 255° West 428 493 38,000  Level Kansas City Center
Sun 09:41:46 PM 36.9997 -100.2847 255° West 428 493 38,000  Level Kansas City Center
Sun 09:42:48 PM 36.9636 -100.4464 254° West 430 495 38,000  Level Kansas City Center
Sun 09:43:49 PM 36.9325 -100.5847 254° West 431 496 38,000  Level Kansas City Center
Sun 09:44:50 PM 36.9006 -100.7228 254° West 431 496 38,000  Level Kansas City Center
Sun 09:45:52 PM 36.8636 -100.8844 254° West 432 497 38,000  Level Kansas City Center
Sun 09:46:53 PM 36.8322 -101.0222 254° West 432 497 38,000  Level Kansas City Center
Sun 09:47:54 PM 36.7936 -101.1836 253° West 434 499 38,000  Level Kansas City Center
Sun 09:48:56 PM 36.7625 -101.3206 254° West 432 497 38,000  Level Kansas City Center
Sun 09:49:48 PM 36.7358 -101.4339 254° West 431 496 38,000  Level Albuquerque Center
Sun 09:50:50 PM 36.6986 -101.5936 254° West 431 496 38,000  Level Albuquerque Center
Sun 09:51:51 PM 36.6667 -101.7297 254° West 428 493 38,000  Level Albuquerque Center
Sun 09:52:52 PM 36.6286 -101.8886 253° West 429 494 38,000  Level Albuquerque Center
Sun 09:53:53 PM 36.5956 -102.0214 253° West 424 488 38,000  Level Albuquerque Center
Sun 09:54:55 PM 36.5631 -102.1600 254° West 422 486 38,000  Level Albuquerque Center
Sun 09:55:56 PM 36.5297 -102.2972 253° West 419 482 38,000  Level Albuquerque Center
Sun 09:56:57 PM 36.4961 -102.4358 253° West 419 482 38,000  Level Albuquerque Center
Sun 09:57:59 PM 36.4619 -102.5733 253° West 420 483 38,000  Level Albuquerque Center
Sun 09:59:00 PM 36.4275 -102.7117 253° West 421 484 38,000  Level Albuquerque Center
Sun 10:00:01 PM 36.3864 -102.8794 253° West 424 488 38,000  Level Albuquerque Center
Sun 10:01:02 PM 36.3539 -103.0064 252° West 426 490 38,000  Level Albuquerque Center
Sun 10:02:04 PM 36.3181 -103.1492 253° West 429 494 38,000  Level Albuquerque Center
Sun 10:03:05 PM 36.2836 -103.2931 253° West 431 496 38,000  Level Albuquerque Center
Sun 10:04:06 PM 36.2475 -103.4361 253° West 432 497 38,000  Level Albuquerque Center
Sun 10:05:08 PM 36.2056 -103.6044 253° West 434 499 38,000  Level Albuquerque Center
Sun 10:06:09 PM 36.1683 -103.7464 252° West 433 498 38,000  Level Albuquerque Center
Sun 10:07:10 PM 36.1311 -103.8886 252° West 433 498 38,000  Level Albuquerque Center
Sun 10:08:11 PM 36.0936 -104.0283 252° West 429 494 38,000  Level Albuquerque Center
Sun 10:09:13 PM 36.0567 -104.1708 252° West 432 497 38,000  Level Albuquerque Center
Sun 10:10:14 PM 36.0194 -104.3117 252° West 431 496 38,000  Level Albuquerque Center
Sun 10:11:15 PM 35.9831 -104.4514 252° West 429 494 38,000  Level Albuquerque Center
Sun 10:12:17 PM 35.9461 -104.5897 252° West 426 490 38,000 -146 Level Albuquerque Center
Sun 10:13:18 PM 35.9092 -104.7297 252° West 427 491 37,700 -590 Descending Albuquerque Center
Sun 10:14:19 PM 35.8694 -104.8728 251° West 436 502 36,800 -927 Descending Albuquerque Center
Sun 10:15:21 PM 35.8308 -105.0158 252° West 439 505 35,800 -1,024 Descending Albuquerque Center
Sun 10:16:22 PM 35.7867 -105.1789 252° West 432 497 34,700 -885 Descending Albuquerque Center
Sun 10:17:23 PM 35.7492 -105.3172 252° West 427 491 34,000 -341 Descending Albuquerque Center
Sun 10:18:25 PM 35.7100 -105.4550 251° West 425 489 34,000 -439 Level Albuquerque Center
Sun 10:19:26 PM 35.6897 -105.5778 259° West 423 487 33,100 -1,721 Descending Albuquerque Center
Sun 10:20:27 PM 35.6800 -105.7189 265° West 417 480 30,500 -2,537 Descending Albuquerque Center
Sun 10:21:29 PM 35.6636 -105.8844 263° West 410 472 27,900 -2,341 Descending Albuquerque Center
Sun 10:22:30 PM 35.6508 -106.0167 263° West 397 457 25,700 -2,115 Descending Albuquerque Center
Sun 10:23:31 PM 35.6375 -106.1447 263° West 384 442 23,600 -2,049 Descending Albuquerque Center
Sun 10:24:33 PM 35.6258 -106.2725 264° West 378 435 21,500 -2,049 Descending Albuquerque Center
Sun 10:25:34 PM 35.6136 -106.3961 263° West 371 427 19,400 -2,110 Descending Albuquerque Center
Sun 10:26:04 PM 35.6039 -106.4647 260° West 359 413 18,300 -1,935 Descending Albuquerque Center
Sun 10:26:36 PM 35.6006 -106.5147 265° West 358 412 17,400 -2,066 Descending Albuquerque Center
Sun 10:27:05 PM 35.5753 -106.5817 245° Southwest 347 399 16,200 -1,967 Descending Albuquerque Center
Sun 10:27:37 PM 35.5467 -106.6031 211° Southwest 353 406 15,400 -1,377 Descending Albuquerque Center
Sun 10:28:06 PM 35.4900 -106.6325 203° Southwest 338 389 14,800 -1,082 Descending Albuquerque Center
Sun 10:28:38 PM 35.4633 -106.6467 203° Southwest 333 383 14,300 -1,500 Descending Albuquerque Center
Sun 10:29:06 PM 35.4119 -106.6736 203° Southwest 308 354 13,300 -1,548 Descending Albuquerque Center
Sun 10:29:40 PM 35.3844 -106.6897 206° Southwest 315 362 12,700 -1,574 Descending Albuquerque Center
Sun 10:30:07 PM 35.3358 -106.7142 202° Southwest 298 343 11,700 -1,770 Descending Albuquerque Center
Sun 10:30:41 PM 35.2944 -106.7386 206° Southwest 300 345 10,900 -1,377 Descending Albuquerque Center
Sun 10:31:08 PM 35.2642 -106.7561 205° Southwest 280 322 10,300 -1,180 Descending Albuquerque Center
Sun 10:31:42 PM 35.2222 -106.7775 203° Southwest 290 334 9,700 -800 Descending Albuquerque Center
Sun 10:32:08 PM 35.1897 -106.7700 169° South 271 312 9,500 -387 Descending Albuquerque Center
Sun 10:32:44 PM 35.1522 -106.7639 172° South 263 303 9,300 -689 Descending Albuquerque Center
Sun 10:33:09 PM 35.1239 -106.7583 171° South 214 246 8,800 -1,082 Descending Albuquerque Center
Sun 10:33:45 PM 35.0919 -106.7508 169° South 234 269 8,200 -1,100 Descending Albuquerque Center
Sun 10:34:09 PM 35.0644 -106.7478 175° South 203 234 7,700 -1,161 Descending Albuquerque Center
Sun 10:34:47 PM 35.0439 -106.7236 136° Southeast 222 255 7,000 -1,082 Descending Albuquerque Center
Sun 10:35:10 PM 35.0431 -106.6986 92° East 176 203 6,600 -787 Descending Albuquerque Center
Sun 10:35:48 PM 35.0442 -106.6667 88° East 187 215 6,200 -787 Descending Albuquerque Center
Sun 10:36:11 PM 35.0442 -106.6439 90° East 153 176 5,800 -885 Descending Albuquerque Center
Sun 10:36:49 PM 35.0442 -106.6150 90° East 168 193 5,300 -789 Descending Albuquerque Center
Sun 10:38:00 PM 35.0402 -106.6092 90° East  Level Estimated

Login

Don't have an account? Register now (free) for customized features, flight alerts, and more!